Hauptseite
METAR-TAF:

METAR-TAF

Flughäfen :

Augsburg, Deutschland

Flughafen Augsburg

Breite: 48-26N, Länge: 010-56E, Höhe: 461 m

Beobachtung

Neuester Wetterbericht von vor 38 Minuten, um 19:50 UTC
Wind 2 kt aus Nordwest
Temperatur -1°C
Luftfeuchtigkeit 93%
Luftdruck 1026 hPa
Sichtweite 10 km oder mehr
Geschlossene Wolkendecke in der Höhe von 3500 ft

METAR: EDMA 181950Z 32002KT 9999 OVC035 M01/M02 Q1026

Zeit: 21:28 (20:28 UTC)

Prognose

Neuester Wetterbericht von vor 3 Stunden und 28 Minuten, um 17:00 UTC
Gültige Prognose vom 18 um 18 UTC bis 19 um 03 UTC
Wind 2 kt aus unterschiedlichen Richtungen
Sichtweite 10 km oder mehr
Durchbrochene Bewölkung in der Höhe von 3500 ft
Übergehend zu
vom 18 um 19 UTC bis 18 um 22 UTC
Sichtweite: 4000 m
feuchter Dunst

TAF: EDMA 181700Z 1818/1903 VRB02KT 9999 BKN035 BECMG 1819/1822 4000 BR

Wetterbeobachtungen und Prognosen von mehr als 4000 Flughäfen (METAR und TAF Bericht).

Die verfügbaren Stationen werden durch gelbe und rote Markierungen auf der Karte dargestellt.

Führen Sie die Maus auf sie, um den Namen der Station zu sehen.

Darauf klicken, um die Beobachtung von Wetterbeobachtungen und Prognosen zu sehen.

Um die Karte zu ändern : klicken Sie auf den grünen Tasten mit einem schwarzen Kreuz Zum Vergrößern, auf den grünen Button mit einem Gedankenstrich zu verkleinern, oder auf die grünen Pfeile für benachbarte Karten.


METAR-TAF: